sensor_id;sensor_type;location;lat;lon;timestamp;P1;durP1;ratioP1;P2;durP2;ratioP2
4575;SDS011;2300;51.874;8.430;2022-08-07T00:00:14;5.63;;;2.73;;
4575;SDS011;2300;51.874;8.430;2022-08-07T00:02:41;6.67;;;2.47;;
4575;SDS011;2300;51.874;8.430;2022-08-07T00:05:07;5.33;;;2.67;;
4575;SDS011;2300;51.874;8.430;2022-08-07T00:07:36;6.37;;;3.00;;
4575;SDS011;2300;51.874;8.430;2022-08-07T00:10:03;4.60;;;2.67;;
4575;SDS011;2300;51.874;8.430;2022-08-07T00:12:30;5.10;;;2.90;;
4575;SDS011;2300;51.874;8.430;2022-08-07T00:14:58;4.87;;;3.00;;
4575;SDS011;2300;51.874;8.430;2022-08-07T00:17:25;3.50;;;2.50;;
4575;SDS011;2300;51.874;8.430;2022-08-07T00:19:51;6.17;;;2.90;;
4575;SDS011;2300;51.874;8.430;2022-08-07T00:22:18;5.93;;;3.20;;
4575;SDS011;2300;51.874;8.430;2022-08-07T00:24:45;4.87;;;2.73;;
4575;SDS011;2300;51.874;8.430;2022-08-07T00:27:11;4.43;;;2.70;;
4575;SDS011;2300;51.874;8.430;2022-08-07T00:29:39;3.00;;;2.33;;
4575;SDS011;2300;51.874;8.430;2022-08-07T00:32:07;4.23;;;2.73;;
4575;SDS011;2300;51.874;8.430;2022-08-07T00:34:33;5.60;;;2.67;;
4575;SDS011;2300;51.874;8.430;2022-08-07T00:37:00;4.37;;;2.60;;
4575;SDS011;2300;51.874;8.430;2022-08-07T00:39:27;3.53;;;2.50;;
4575;SDS011;2300;51.874;8.430;2022-08-07T00:41:54;3.13;;;2.40;;
4575;SDS011;2300;51.874;8.430;2022-08-07T00:44:22;3.97;;;2.40;;
4575;SDS011;2300;51.874;8.430;2022-08-07T00:46:49;3.73;;;2.50;;
4575;SDS011;2300;51.874;8.430;2022-08-07T00:49:17;5.73;;;2.67;;
4575;SDS011;2300;51.874;8.430;2022-08-07T00:51:44;6.63;;;2.77;;
4575;SDS011;2300;51.874;8.430;2022-08-07T00:54:11;3.90;;;2.37;;
4575;SDS011;2300;51.874;8.430;2022-08-07T00:56:39;3.30;;;2.77;;
4575;SDS011;2300;51.874;8.430;2022-08-07T00:59:06;4.20;;;2.90;;
4575;SDS011;2300;51.874;8.430;2022-08-07T01:01:33;5.43;;;2.83;;
4575;SDS011;2300;51.874;8.430;2022-08-07T01:04:03;4.50;;;3.10;;
4575;SDS011;2300;51.874;8.430;2022-08-07T01:06:32;4.70;;;3.23;;
4575;SDS011;2300;51.874;8.430;2022-08-07T01:08:59;4.13;;;3.10;;
4575;SDS011;2300;51.874;8.430;2022-08-07T01:11:27;5.53;;;3.30;;
4575;SDS011;2300;51.874;8.430;2022-08-07T01:13:53;6.80;;;3.23;;
4575;SDS011;2300;51.874;8.430;2022-08-07T01:16:20;5.03;;;2.83;;
4575;SDS011;2300;51.874;8.430;2022-08-07T01:18:47;5.30;;;3.20;;
4575;SDS011;2300;51.874;8.430;2022-08-07T01:21:15;6.60;;;3.10;;
4575;SDS011;2300;51.874;8.430;2022-08-07T01:23:44;6.20;;;3.83;;
4575;SDS011;2300;51.874;8.430;2022-08-07T01:26:12;5.23;;;3.40;;
4575;SDS011;2300;51.874;8.430;2022-08-07T01:28:41;5.37;;;3.40;;
4575;SDS011;2300;51.874;8.430;2022-08-07T01:31:09;4.60;;;3.47;;
4575;SDS011;2300;51.874;8.430;2022-08-07T01:33:36;5.27;;;3.63;;
4575;SDS011;2300;51.874;8.430;2022-08-07T01:36:04;7.27;;;3.90;;
4575;SDS011;2300;51.874;8.430;2022-08-07T01:38:35;6.33;;;4.17;;
4575;SDS011;2300;51.874;8.430;2022-08-07T01:41:02;7.17;;;4.17;;
4575;SDS011;2300;51.874;8.430;2022-08-07T01:43:30;7.07;;;3.67;;
4575;SDS011;2300;51.874;8.430;2022-08-07T01:45:58;6.07;;;4.27;;
4575;SDS011;2300;51.874;8.430;2022-08-07T01:48:26;5.50;;;4.80;;
4575;SDS011;2300;51.874;8.430;2022-08-07T01:50:55;5.73;;;4.90;;
4575;SDS011;2300;51.874;8.430;2022-08-07T01:53:25;5.87;;;4.93;;
4575;SDS011;2300;51.874;8.430;2022-08-07T01:55:55;10.07;;;5.17;;
4575;SDS011;2300;51.874;8.430;2022-08-07T01:58:27;5.70;;;4.93;;
4575;SDS011;2300;51.874;8.430;2022-08-07T02:01:00;5.60;;;5.00;;
4575;SDS011;2300;51.874;8.430;2022-08-07T02:03:29;6.67;;;4.50;;
4575;SDS011;2300;51.874;8.430;2022-08-07T02:06:00;7.70;;;4.60;;
4575;SDS011;2300;51.874;8.430;2022-08-07T02:08:32;6.20;;;4.77;;
4575;SDS011;2300;51.874;8.430;2022-08-07T02:11:06;5.60;;;4.70;;
4575;SDS011;2300;51.874;8.430;2022-08-07T02:13:34;5.20;;;4.70;;
4575;SDS011;2300;51.874;8.430;2022-08-07T02:16:03;7.93;;;5.50;;
4575;SDS011;2300;51.874;8.430;2022-08-07T02:18:32;7.07;;;5.30;;
4575;SDS011;2300;51.874;8.430;2022-08-07T02:21:03;6.87;;;5.27;;
4575;SDS011;2300;51.874;8.430;2022-08-07T02:23:37;5.93;;;5.03;;
4575;SDS011;2300;51.874;8.430;2022-08-07T02:26:07;6.97;;;5.23;;
4575;SDS011;2300;51.874;8.430;2022-08-07T02:28:35;6.30;;;4.90;;
4575;SDS011;2300;51.874;8.430;2022-08-07T02:31:05;8.80;;;5.27;;
4575;SDS011;2300;51.874;8.430;2022-08-07T02:33:33;7.90;;;6.13;;
4575;SDS011;2300;51.874;8.430;2022-08-07T02:36:02;7.10;;;5.53;;
4575;SDS011;2300;51.874;8.430;2022-08-07T02:38:32;6.50;;;5.70;;
4575;SDS011;2300;51.874;8.430;2022-08-07T02:41:02;6.43;;;5.53;;
4575;SDS011;2300;51.874;8.430;2022-08-07T02:43:31;7.07;;;5.57;;
4575;SDS011;2300;51.874;8.430;2022-08-07T02:46:11;6.57;;;5.23;;
4575;SDS011;2300;51.874;8.430;2022-08-07T02:48:37;6.20;;;5.00;;
4575;SDS011;2300;51.874;8.430;2022-08-07T02:51:06;7.03;;;5.67;;
4575;SDS011;2300;51.874;8.430;2022-08-07T02:53:35;6.93;;;5.37;;
4575;SDS011;2300;51.874;8.430;2022-08-07T02:56:06;7.13;;;5.70;;
4575;SDS011;2300;51.874;8.430;2022-08-07T02:58:38;7.33;;;5.70;;
4575;SDS011;2300;51.874;8.430;2022-08-07T03:01:07;8.70;;;5.77;;
4575;SDS011;2300;51.874;8.430;2022-08-07T03:03:36;6.17;;;5.30;;
4575;SDS011;2300;51.874;8.430;2022-08-07T03:06:03;7.60;;;5.87;;
4575;SDS011;2300;51.874;8.430;2022-08-07T03:08:31;7.13;;;5.77;;
4575;SDS011;2300;51.874;8.430;2022-08-07T03:10:59;6.57;;;5.93;;
4575;SDS011;2300;51.874;8.430;2022-08-07T03:13:27;6.33;;;5.67;;
4575;SDS011;2300;51.874;8.430;2022-08-07T03:15:56;6.17;;;5.57;;
4575;SDS011;2300;51.874;8.430;2022-08-07T03:18:23;6.57;;;5.90;;
4575;SDS011;2300;51.874;8.430;2022-08-07T03:20:50;6.90;;;5.70;;
4575;SDS011;2300;51.874;8.430;2022-08-07T03:23:17;8.10;;;5.63;;
4575;SDS011;2300;51.874;8.430;2022-08-07T03:25:45;9.13;;;6.60;;
4575;SDS011;2300;51.874;8.430;2022-08-07T03:28:12;8.03;;;6.70;;
4575;SDS011;2300;51.874;8.430;2022-08-07T03:30:42;6.50;;;5.73;;
4575;SDS011;2300;51.874;8.430;2022-08-07T03:33:11;6.27;;;5.67;;
4575;SDS011;2300;51.874;8.430;2022-08-07T03:35:46;6.90;;;5.67;;
4575;SDS011;2300;51.874;8.430;2022-08-07T03:38:13;9.57;;;5.87;;
4575;SDS011;2300;51.874;8.430;2022-08-07T03:40:41;6.73;;;5.93;;
4575;SDS011;2300;51.874;8.430;2022-08-07T03:43:10;7.83;;;5.97;;
4575;SDS011;2300;51.874;8.430;2022-08-07T03:45:38;6.73;;;5.90;;
4575;SDS011;2300;51.874;8.430;2022-08-07T03:48:05;8.80;;;5.70;;
4575;SDS011;2300;51.874;8.430;2022-08-07T03:50:33;7.73;;;6.03;;
4575;SDS011;2300;51.874;8.430;2022-08-07T03:53:00;6.13;;;5.43;;
4575;SDS011;2300;51.874;8.430;2022-08-07T03:55:28;6.27;;;5.67;;
4575;SDS011;2300;51.874;8.430;2022-08-07T03:57:56;6.30;;;5.70;;
4575;SDS011;2300;51.874;8.430;2022-08-07T04:00:23;6.60;;;5.90;;
4575;SDS011;2300;51.874;8.430;2022-08-07T04:02:52;6.57;;;5.40;;
4575;SDS011;2300;51.874;8.430;2022-08-07T04:05:19;7.83;;;5.57;;
4575;SDS011;2300;51.874;8.430;2022-08-07T04:07:48;6.90;;;6.20;;
4575;SDS011;2300;51.874;8.430;2022-08-07T04:10:16;8.30;;;6.13;;
4575;SDS011;2300;51.874;8.430;2022-08-07T04:12:45;8.20;;;6.13;;
4575;SDS011;2300;51.874;8.430;2022-08-07T04:15:14;7.47;;;5.77;;
4575;SDS011;2300;51.874;8.430;2022-08-07T04:17:41;11.60;;;6.17;;
4575;SDS011;2300;51.874;8.430;2022-08-07T04:20:10;8.20;;;6.23;;
4575;SDS011;2300;51.874;8.430;2022-08-07T04:22:40;9.50;;;6.40;;
4575;SDS011;2300;51.874;8.430;2022-08-07T04:25:08;7.77;;;6.40;;
4575;SDS011;2300;51.874;8.430;2022-08-07T04:27:35;8.93;;;6.30;;
4575;SDS011;2300;51.874;8.430;2022-08-07T04:30:02;7.77;;;6.37;;
4575;SDS011;2300;51.874;8.430;2022-08-07T04:32:30;7.80;;;6.90;;
4575;SDS011;2300;51.874;8.430;2022-08-07T04:34:58;7.67;;;6.90;;
4575;SDS011;2300;51.874;8.430;2022-08-07T04:37:26;7.87;;;7.00;;
4575;SDS011;2300;51.874;8.430;2022-08-07T04:39:52;8.07;;;6.27;;
4575;SDS011;2300;51.874;8.430;2022-08-07T04:42:20;7.47;;;6.50;;
4575;SDS011;2300;51.874;8.430;2022-08-07T04:44:52;7.70;;;6.90;;
4575;SDS011;2300;51.874;8.430;2022-08-07T04:47:20;8.40;;;6.80;;
4575;SDS011;2300;51.874;8.430;2022-08-07T04:49:56;8.97;;;7.70;;
4575;SDS011;2300;51.874;8.430;2022-08-07T04:52:33;9.23;;;7.70;;
4575;SDS011;2300;51.874;8.430;2022-08-07T04:55:05;10.60;;;7.30;;
4575;SDS011;2300;51.874;8.430;2022-08-07T04:57:42;8.57;;;7.70;;
4575;SDS011;2300;51.874;8.430;2022-08-07T05:00:15;9.33;;;7.23;;
4575;SDS011;2300;51.874;8.430;2022-08-07T05:02:45;8.10;;;7.07;;
4575;SDS011;2300;51.874;8.430;2022-08-07T05:05:28;11.23;;;7.80;;
4575;SDS011;2300;51.874;8.430;2022-08-07T05:08:02;9.53;;;7.10;;
4575;SDS011;2300;51.874;8.430;2022-08-07T05:10:32;8.27;;;7.10;;
4575;SDS011;2300;51.874;8.430;2022-08-07T05:13:05;9.70;;;7.77;;
4575;SDS011;2300;51.874;8.430;2022-08-07T05:15:35;9.33;;;6.37;;
4575;SDS011;2300;51.874;8.430;2022-08-07T05:18:06;6.93;;;5.50;;
4575;SDS011;2300;51.874;8.430;2022-08-07T05:20:37;8.07;;;5.77;;
4575;SDS011;2300;51.874;8.430;2022-08-07T05:23:06;7.40;;;5.07;;
4575;SDS011;2300;51.874;8.430;2022-08-07T05:25:39;6.00;;;4.60;;
4575;SDS011;2300;51.874;8.430;2022-08-07T05:28:09;6.17;;;4.30;;
4575;SDS011;2300;51.874;8.430;2022-08-07T05:30:36;5.07;;;3.93;;
4575;SDS011;2300;51.874;8.430;2022-08-07T05:33:05;7.53;;;4.90;;
4575;SDS011;2300;51.874;8.430;2022-08-07T05:35:34;5.93;;;3.70;;
4575;SDS011;2300;51.874;8.430;2022-08-07T05:38:02;6.35;;;3.67;;
4575;SDS011;2300;51.874;8.430;2022-08-07T05:40:33;8.05;;;4.13;;
4575;SDS011;2300;51.874;8.430;2022-08-07T05:43:02;5.63;;;3.38;;
4575;SDS011;2300;51.874;8.430;2022-08-07T05:45:31;4.38;;;2.92;;
4575;SDS011;2300;51.874;8.430;2022-08-07T05:47:58;3.05;;;2.72;;
4575;SDS011;2300;51.874;8.430;2022-08-07T05:50:25;4.30;;;2.67;;
4575;SDS011;2300;51.874;8.430;2022-08-07T05:52:53;5.50;;;3.05;;
4575;SDS011;2300;51.874;8.430;2022-08-07T05:55:19;6.65;;;2.30;;
4575;SDS011;2300;51.874;8.430;2022-08-07T05:57:46;4.38;;;3.00;;
4575;SDS011;2300;51.874;8.430;2022-08-07T06:00:14;2.67;;;2.30;;
4575;SDS011;2300;51.874;8.430;2022-08-07T06:02:43;3.80;;;2.55;;
4575;SDS011;2300;51.874;8.430;2022-08-07T06:05:15;2.92;;;2.10;;
4575;SDS011;2300;51.874;8.430;2022-08-07T06:07:42;3.60;;;2.30;;
4575;SDS011;2300;51.874;8.430;2022-08-07T06:10:09;4.45;;;1.95;;
4575;SDS011;2300;51.874;8.430;2022-08-07T06:12:36;5.07;;;2.10;;
4575;SDS011;2300;51.874;8.430;2022-08-07T06:15:04;4.05;;;1.80;;
4575;SDS011;2300;51.874;8.430;2022-08-07T06:17:32;3.97;;;2.00;;
4575;SDS011;2300;51.874;8.430;2022-08-07T06:20:03;5.00;;;2.20;;
4575;SDS011;2300;51.874;8.430;2022-08-07T06:22:31;3.15;;;2.05;;
4575;SDS011;2300;51.874;8.430;2022-08-07T06:24:58;3.22;;;1.88;;
4575;SDS011;2300;51.874;8.430;2022-08-07T06:27:25;4.40;;;2.10;;
4575;SDS011;2300;51.874;8.430;2022-08-07T06:29:56;2.95;;;2.15;;
4575;SDS011;2300;51.874;8.430;2022-08-07T06:32:25;3.47;;;2.13;;
4575;SDS011;2300;51.874;8.430;2022-08-07T06:34:52;3.40;;;2.50;;
4575;SDS011;2300;51.874;8.430;2022-08-07T06:37:20;4.30;;;2.35;;
4575;SDS011;2300;51.874;8.430;2022-08-07T06:39:46;3.58;;;1.90;;
4575;SDS011;2300;51.874;8.430;2022-08-07T06:42:14;3.85;;;1.70;;
4575;SDS011;2300;51.874;8.430;2022-08-07T06:44:43;3.95;;;1.90;;
4575;SDS011;2300;51.874;8.430;2022-08-07T06:47:12;3.80;;;2.10;;
4575;SDS011;2300;51.874;8.430;2022-08-07T06:49:39;3.60;;;2.15;;
4575;SDS011;2300;51.874;8.430;2022-08-07T06:52:07;5.40;;;2.33;;
4575;SDS011;2300;51.874;8.430;2022-08-07T06:54:36;5.00;;;2.17;;
4575;SDS011;2300;51.874;8.430;2022-08-07T06:57:04;4.85;;;2.50;;
4575;SDS011;2300;51.874;8.430;2022-08-07T06:59:34;7.05;;;2.70;;
4575;SDS011;2300;51.874;8.430;2022-08-07T07:02:03;6.20;;;2.22;;
4575;SDS011;2300;51.874;8.430;2022-08-07T07:04:32;5.72;;;2.60;;
4575;SDS011;2300;51.874;8.430;2022-08-07T07:07:00;5.07;;;2.28;;
4575;SDS011;2300;51.874;8.430;2022-08-07T07:09:31;4.28;;;2.28;;
4575;SDS011;2300;51.874;8.430;2022-08-07T07:12:16;3.47;;;2.33;;
4575;SDS011;2300;51.874;8.430;2022-08-07T07:14:50;3.95;;;2.30;;
4575;SDS011;2300;51.874;8.430;2022-08-07T07:17:25;4.53;;;2.10;;
4575;SDS011;2300;51.874;8.430;2022-08-07T07:19:59;4.47;;;2.20;;
4575;SDS011;2300;51.874;8.430;2022-08-07T07:22:30;5.90;;;2.42;;
4575;SDS011;2300;51.874;8.430;2022-08-07T07:24:59;5.35;;;2.25;;
4575;SDS011;2300;51.874;8.430;2022-08-07T07:27:29;5.88;;;2.40;;
4575;SDS011;2300;51.874;8.430;2022-08-07T07:30:01;4.57;;;1.95;;
4575;SDS011;2300;51.874;8.430;2022-08-07T07:32:29;5.25;;;1.88;;
4575;SDS011;2300;51.874;8.430;2022-08-07T07:35:03;4.50;;;2.05;;
4575;SDS011;2300;51.874;8.430;2022-08-07T07:37:31;4.88;;;2.28;;
4575;SDS011;2300;51.874;8.430;2022-08-07T07:40:01;4.40;;;2.10;;
4575;SDS011;2300;51.874;8.430;2022-08-07T07:42:32;4.30;;;2.30;;
4575;SDS011;2300;51.874;8.430;2022-08-07T07:45:01;4.28;;;2.13;;
4575;SDS011;2300;51.874;8.430;2022-08-07T07:47:31;4.47;;;1.90;;
4575;SDS011;2300;51.874;8.430;2022-08-07T07:50:01;3.97;;;1.73;;
4575;SDS011;2300;51.874;8.430;2022-08-07T07:52:30;4.38;;;1.90;;
4575;SDS011;2300;51.874;8.430;2022-08-07T07:54:58;3.13;;;1.77;;
4575;SDS011;2300;51.874;8.430;2022-08-07T07:57:26;2.75;;;1.40;;
4575;SDS011;2300;51.874;8.430;2022-08-07T07:59:54;4.30;;;1.50;;
4575;SDS011;2300;51.874;8.430;2022-08-07T08:02:23;3.25;;;1.40;;
4575;SDS011;2300;51.874;8.430;2022-08-07T08:04:53;2.22;;;1.30;;
4575;SDS011;2300;51.874;8.430;2022-08-07T08:07:21;3.45;;;1.30;;
4575;SDS011;2300;51.874;8.430;2022-08-07T08:09:49;2.70;;;1.20;;
4575;SDS011;2300;51.874;8.430;2022-08-07T08:12:28;3.60;;;1.33;;
4575;SDS011;2300;51.874;8.430;2022-08-07T08:14:57;4.10;;;1.80;;
4575;SDS011;2300;51.874;8.430;2022-08-07T08:17:24;1.92;;;1.30;;
4575;SDS011;2300;51.874;8.430;2022-08-07T08:19:55;2.97;;;0.98;;
4575;SDS011;2300;51.874;8.430;2022-08-07T08:22:27;2.88;;;1.20;;
4575;SDS011;2300;51.874;8.430;2022-08-07T08:25:12;4.35;;;1.30;;
4575;SDS011;2300;51.874;8.430;2022-08-07T08:28:00;3.13;;;1.13;;
4575;SDS011;2300;51.874;8.430;2022-08-07T08:30:32;1.48;;;0.90;;
4575;SDS011;2300;51.874;8.430;2022-08-07T08:33:01;4.13;;;1.25;;
4575;SDS011;2300;51.874;8.430;2022-08-07T08:35:30;2.47;;;1.00;;
4575;SDS011;2300;51.874;8.430;2022-08-07T08:38:00;2.97;;;1.02;;
4575;SDS011;2300;51.874;8.430;2022-08-07T08:40:29;1.75;;;1.20;;
4575;SDS011;2300;51.874;8.430;2022-08-07T08:42:59;2.33;;;1.00;;
4575;SDS011;2300;51.874;8.430;2022-08-07T08:45:34;2.17;;;0.93;;
4575;SDS011;2300;51.874;8.430;2022-08-07T08:48:06;1.17;;;0.80;;
4575;SDS011;2300;51.874;8.430;2022-08-07T08:50:42;1.77;;;0.88;;
4575;SDS011;2300;51.874;8.430;2022-08-07T08:53:14;1.58;;;0.73;;
4575;SDS011;2300;51.874;8.430;2022-08-07T08:55:50;3.47;;;1.20;;
4575;SDS011;2300;51.874;8.430;2022-08-07T08:58:25;2.40;;;0.90;;
4575;SDS011;2300;51.874;8.430;2022-08-07T09:01:01;7.38;;;1.17;;
4575;SDS011;2300;51.874;8.430;2022-08-07T09:03:38;2.50;;;0.77;;
4575;SDS011;2300;51.874;8.430;2022-08-07T09:06:16;1.60;;;0.40;;
4575;SDS011;2300;51.874;8.430;2022-08-07T09:08:50;3.55;;;0.50;;
4575;SDS011;2300;51.874;8.430;2022-08-07T09:11:26;6.93;;;1.30;;
4575;SDS011;2300;51.874;8.430;2022-08-07T09:14:01;1.83;;;0.70;;
4575;SDS011;2300;51.874;8.430;2022-08-07T09:16:38;1.20;;;0.60;;
4575;SDS011;2300;51.874;8.430;2022-08-07T09:19:22;1.13;;;0.40;;
4575;SDS011;2300;51.874;8.430;2022-08-07T09:21:59;2.10;;;0.30;;
4575;SDS011;2300;51.874;8.430;2022-08-07T09:24:39;1.48;;;0.50;;
4575;SDS011;2300;51.874;8.430;2022-08-07T09:27:16;1.58;;;0.50;;
4575;SDS011;2300;51.874;8.430;2022-08-07T09:29:54;2.72;;;0.47;;
4575;SDS011;2300;51.874;8.430;2022-08-07T09:32:27;2.50;;;0.43;;
4575;SDS011;2300;51.874;8.430;2022-08-07T09:35:19;2.55;;;0.52;;
4575;SDS011;2300;51.874;8.430;2022-08-07T09:37:57;2.53;;;0.45;;
4575;SDS011;2300;51.874;8.430;2022-08-07T09:40:31;1.20;;;0.47;;
4575;SDS011;2300;51.874;8.430;2022-08-07T09:43:06;1.42;;;0.45;;
4575;SDS011;2300;51.874;8.430;2022-08-07T09:45:46;2.78;;;0.60;;
4575;SDS011;2300;51.874;8.430;2022-08-07T09:48:40;1.73;;;0.40;;
4575;SDS011;2300;51.874;8.430;2022-08-07T09:51:22;2.75;;;0.70;;
4575;SDS011;2300;51.874;8.430;2022-08-07T09:54:21;1.02;;;0.52;;
4575;SDS011;2300;51.874;8.430;2022-08-07T09:57:05;3.50;;;0.40;;
4575;SDS011;2300;51.874;8.430;2022-08-07T09:59:52;1.80;;;0.52;;
4575;SDS011;2300;51.874;8.430;2022-08-07T10:02:36;1.40;;;0.43;;
4575;SDS011;2300;51.874;8.430;2022-08-07T10:08:45;1.25;;;0.40;;
4575;SDS011;2300;51.874;8.430;2022-08-07T10:11:42;2.03;;;0.43;;
4575;SDS011;2300;51.874;8.430;2022-08-07T10:14:23;1.73;;;0.40;;
4575;SDS011;2300;51.874;8.430;2022-08-07T10:17:16;1.35;;;0.38;;
4575;SDS011;2300;51.874;8.430;2022-08-07T10:20:03;1.60;;;0.50;;
4575;SDS011;2300;51.874;8.430;2022-08-07T10:22:45;1.17;;;0.40;;
4575;SDS011;2300;51.874;8.430;2022-08-07T10:25:37;1.15;;;0.40;;
4575;SDS011;2300;51.874;8.430;2022-08-07T10:28:36;1.77;;;0.60;;
4575;SDS011;2300;51.874;8.430;2022-08-07T10:31:23;1.88;;;0.40;;
4575;SDS011;2300;51.874;8.430;2022-08-07T10:34:07;1.10;;;0.50;;
4575;SDS011;2300;51.874;8.430;2022-08-07T10:36:57;1.63;;;0.40;;
4575;SDS011;2300;51.874;8.430;2022-08-07T10:39:43;1.55;;;0.50;;
4575;SDS011;2300;51.874;8.430;2022-08-07T10:42:27;2.45;;;0.40;;
4575;SDS011;2300;51.874;8.430;2022-08-07T10:45:10;1.75;;;0.50;;
4575;SDS011;2300;51.874;8.430;2022-08-07T10:47:49;3.00;;;0.40;;
4575;SDS011;2300;51.874;8.430;2022-08-07T10:50:26;2.10;;;0.57;;
4575;SDS011;2300;51.874;8.430;2022-08-07T10:53:00;3.38;;;0.43;;
4575;SDS011;2300;51.874;8.430;2022-08-07T10:55:43;1.27;;;0.43;;
4575;SDS011;2300;51.874;8.430;2022-08-07T11:01:20;2.30;;;0.50;;
4575;SDS011;2300;51.874;8.430;2022-08-07T11:04:04;1.38;;;0.52;;
4575;SDS011;2300;51.874;8.430;2022-08-07T11:06:42;1.55;;;0.40;;
4575;SDS011;2300;51.874;8.430;2022-08-07T11:09:17;2.35;;;0.50;;
4575;SDS011;2300;51.874;8.430;2022-08-07T11:11:57;1.48;;;0.40;;
4575;SDS011;2300;51.874;8.430;2022-08-07T11:14:32;2.35;;;0.50;;
4575;SDS011;2300;51.874;8.430;2022-08-07T11:17:11;1.70;;;0.68;;
4575;SDS011;2300;51.874;8.430;2022-08-07T11:19:44;1.10;;;0.50;;
4575;SDS011;2300;51.874;8.430;2022-08-07T11:22:16;2.30;;;0.50;;
4575;SDS011;2300;51.874;8.430;2022-08-07T11:24:52;1.20;;;0.43;;
4575;SDS011;2300;51.874;8.430;2022-08-07T11:27:26;1.08;;;0.40;;
4575;SDS011;2300;51.874;8.430;2022-08-07T11:30:02;2.50;;;0.70;;
4575;SDS011;2300;51.874;8.430;2022-08-07T11:32:33;2.28;;;0.50;;
4575;SDS011;2300;51.874;8.430;2022-08-07T11:35:05;2.72;;;0.60;;
4575;SDS011;2300;51.874;8.430;2022-08-07T11:40:32;1.30;;;0.50;;
4575;SDS011;2300;51.874;8.430;2022-08-07T11:43:14;3.42;;;0.52;;
4575;SDS011;2300;51.874;8.430;2022-08-07T11:49:04;1.15;;;0.50;;
4575;SDS011;2300;51.874;8.430;2022-08-07T11:51:48;1.23;;;0.38;;
4575;SDS011;2300;51.874;8.430;2022-08-07T11:57:19;1.33;;;0.50;;
4575;SDS011;2300;51.874;8.430;2022-08-07T11:59:52;1.70;;;0.50;;
4575;SDS011;2300;51.874;8.430;2022-08-07T12:02:40;3.33;;;0.57;;
4575;SDS011;2300;51.874;8.430;2022-08-07T12:05:18;0.70;;;0.50;;
4575;SDS011;2300;51.874;8.430;2022-08-07T12:08:00;1.77;;;0.80;;
4575;SDS011;2300;51.874;8.430;2022-08-07T12:10:34;2.45;;;0.73;;
4575;SDS011;2300;51.874;8.430;2022-08-07T12:13:05;5.40;;;0.70;;
4575;SDS011;2300;51.874;8.430;2022-08-07T12:15:38;2.00;;;0.60;;
4575;SDS011;2300;51.874;8.430;2022-08-07T12:18:11;2.53;;;0.60;;
4575;SDS011;2300;51.874;8.430;2022-08-07T12:20:45;6.82;;;0.57;;
4575;SDS011;2300;51.874;8.430;2022-08-07T12:23:34;2.17;;;0.57;;
4575;SDS011;2300;51.874;8.430;2022-08-07T12:26:08;1.20;;;0.50;;
4575;SDS011;2300;51.874;8.430;2022-08-07T12:28:41;1.42;;;0.50;;
4575;SDS011;2300;51.874;8.430;2022-08-07T12:31:16;1.38;;;0.43;;
4575;SDS011;2300;51.874;8.430;2022-08-07T12:33:55;1.70;;;0.40;;
4575;SDS011;2300;51.874;8.430;2022-08-07T12:36:22;2.65;;;0.60;;
4575;SDS011;2300;51.874;8.430;2022-08-07T12:38:51;1.58;;;0.60;;
4575;SDS011;2300;51.874;8.430;2022-08-07T12:41:20;3.05;;;0.55;;
4575;SDS011;2300;51.874;8.430;2022-08-07T12:43:52;1.13;;;0.50;;
4575;SDS011;2300;51.874;8.430;2022-08-07T12:46:25;1.52;;;0.60;;
4575;SDS011;2300;51.874;8.430;2022-08-07T12:49:04;3.13;;;0.60;;
4575;SDS011;2300;51.874;8.430;2022-08-07T12:51:39;0.77;;;0.50;;
4575;SDS011;2300;51.874;8.430;2022-08-07T12:54:16;0.93;;;0.32;;
4575;SDS011;2300;51.874;8.430;2022-08-07T12:56:51;1.55;;;0.60;;
4575;SDS011;2300;51.874;8.430;2022-08-07T12:59:21;1.85;;;0.55;;
4575;SDS011;2300;51.874;8.430;2022-08-07T13:01:54;1.23;;;0.60;;
4575;SDS011;2300;51.874;8.430;2022-08-07T13:04:31;2.95;;;0.88;;
4575;SDS011;2300;51.874;8.430;2022-08-07T13:07:13;2.22;;;0.80;;
4575;SDS011;2300;51.874;8.430;2022-08-07T13:09:49;2.85;;;0.70;;
4575;SDS011;2300;51.874;8.430;2022-08-07T13:12:36;0.80;;;0.52;;
4575;SDS011;2300;51.874;8.430;2022-08-07T13:15:18;1.85;;;0.70;;
4575;SDS011;2300;51.874;8.430;2022-08-07T13:17:56;1.42;;;0.50;;
4575;SDS011;2300;51.874;8.430;2022-08-07T13:20:39;3.50;;;0.68;;
4575;SDS011;2300;51.874;8.430;2022-08-07T13:23:12;3.28;;;0.70;;
4575;SDS011;2300;51.874;8.430;2022-08-07T13:25:44;4.55;;;0.77;;
4575;SDS011;2300;51.874;8.430;2022-08-07T13:28:17;1.80;;;0.68;;
4575;SDS011;2300;51.874;8.430;2022-08-07T13:30:47;5.72;;;1.00;;
4575;SDS011;2300;51.874;8.430;2022-08-07T13:33:20;2.28;;;1.35;;
4575;SDS011;2300;51.874;8.430;2022-08-07T13:35:55;1.10;;;0.60;;
4575;SDS011;2300;51.874;8.430;2022-08-07T13:38:26;1.35;;;0.50;;
4575;SDS011;2300;51.874;8.430;2022-08-07T13:41:00;3.17;;;0.70;;
4575;SDS011;2300;51.874;8.430;2022-08-07T13:43:31;2.03;;;0.52;;
4575;SDS011;2300;51.874;8.430;2022-08-07T13:46:06;1.35;;;0.63;;
4575;SDS011;2300;51.874;8.430;2022-08-07T13:48:36;1.25;;;0.55;;
4575;SDS011;2300;51.874;8.430;2022-08-07T13:51:05;5.43;;;0.80;;
4575;SDS011;2300;51.874;8.430;2022-08-07T13:53:33;1.58;;;0.70;;
4575;SDS011;2300;51.874;8.430;2022-08-07T13:56:04;1.95;;;0.70;;
4575;SDS011;2300;51.874;8.430;2022-08-07T13:58:34;1.38;;;0.60;;
4575;SDS011;2300;51.874;8.430;2022-08-07T14:01:20;2.05;;;0.70;;
4575;SDS011;2300;51.874;8.430;2022-08-07T14:03:49;2.20;;;0.63;;
4575;SDS011;2300;51.874;8.430;2022-08-07T14:06:18;1.13;;;0.70;;
4575;SDS011;2300;51.874;8.430;2022-08-07T14:08:48;1.05;;;0.60;;
4575;SDS011;2300;51.874;8.430;2022-08-07T14:11:18;1.63;;;0.68;;
4575;SDS011;2300;51.874;8.430;2022-08-07T14:13:48;1.98;;;0.60;;
4575;SDS011;2300;51.874;8.430;2022-08-07T14:16:19;1.23;;;0.70;;
4575;SDS011;2300;51.874;8.430;2022-08-07T14:18:51;2.08;;;0.73;;
4575;SDS011;2300;51.874;8.430;2022-08-07T14:21:21;2.85;;;0.80;;
4575;SDS011;2300;51.874;8.430;2022-08-07T14:23:54;1.20;;;0.60;;
4575;SDS011;2300;51.874;8.430;2022-08-07T14:26:24;2.20;;;0.57;;
4575;SDS011;2300;51.874;8.430;2022-08-07T14:28:54;2.78;;;0.70;;
4575;SDS011;2300;51.874;8.430;2022-08-07T14:31:22;1.50;;;0.68;;
4575;SDS011;2300;51.874;8.430;2022-08-07T14:33:50;2.30;;;0.80;;
4575;SDS011;2300;51.874;8.430;2022-08-07T14:36:18;1.80;;;0.70;;
4575;SDS011;2300;51.874;8.430;2022-08-07T14:38:47;3.08;;;0.80;;
4575;SDS011;2300;51.874;8.430;2022-08-07T14:41:17;2.33;;;0.93;;
4575;SDS011;2300;51.874;8.430;2022-08-07T14:43:50;2.10;;;1.00;;
4575;SDS011;2300;51.874;8.430;2022-08-07T14:46:18;1.58;;;0.80;;
4575;SDS011;2300;51.874;8.430;2022-08-07T14:48:48;2.58;;;0.90;;
4575;SDS011;2300;51.874;8.430;2022-08-07T14:51:17;3.53;;;0.88;;
4575;SDS011;2300;51.874;8.430;2022-08-07T14:53:48;1.48;;;0.80;;
4575;SDS011;2300;51.874;8.430;2022-08-07T14:56:17;1.33;;;0.65;;
4575;SDS011;2300;51.874;8.430;2022-08-07T14:58:47;1.38;;;0.70;;
4575;SDS011;2300;51.874;8.430;2022-08-07T15:01:16;4.25;;;1.52;;
4575;SDS011;2300;51.874;8.430;2022-08-07T15:03:44;1.83;;;0.80;;
4575;SDS011;2300;51.874;8.430;2022-08-07T15:06:13;2.22;;;0.70;;
4575;SDS011;2300;51.874;8.430;2022-08-07T15:08:40;2.70;;;0.70;;
4575;SDS011;2300;51.874;8.430;2022-08-07T15:11:12;3.65;;;1.20;;
4575;SDS011;2300;51.874;8.430;2022-08-07T15:13:50;1.48;;;0.88;;
4575;SDS011;2300;51.874;8.430;2022-08-07T15:16:20;1.85;;;0.80;;
4575;SDS011;2300;51.874;8.430;2022-08-07T15:18:53;0.80;;;0.60;;
4575;SDS011;2300;51.874;8.430;2022-08-07T15:21:22;1.98;;;1.02;;
4575;SDS011;2300;51.874;8.430;2022-08-07T15:23:52;3.22;;;0.80;;
4575;SDS011;2300;51.874;8.430;2022-08-07T15:26:34;1.25;;;0.73;;
4575;SDS011;2300;51.874;8.430;2022-08-07T15:29:03;2.13;;;0.90;;
4575;SDS011;2300;51.874;8.430;2022-08-07T15:31:31;3.20;;;0.88;;
4575;SDS011;2300;51.874;8.430;2022-08-07T15:34:01;1.52;;;0.80;;
4575;SDS011;2300;51.874;8.430;2022-08-07T15:36:29;2.47;;;0.82;;
4575;SDS011;2300;51.874;8.430;2022-08-07T15:39:00;1.73;;;0.60;;
4575;SDS011;2300;51.874;8.430;2022-08-07T15:41:29;3.00;;;0.70;;
4575;SDS011;2300;51.874;8.430;2022-08-07T15:43:57;1.38;;;0.68;;
4575;SDS011;2300;51.874;8.430;2022-08-07T15:46:26;1.52;;;0.75;;
4575;SDS011;2300;51.874;8.430;2022-08-07T15:48:58;3.35;;;0.73;;
4575;SDS011;2300;51.874;8.430;2022-08-07T15:51:27;0.90;;;0.50;;
4575;SDS011;2300;51.874;8.430;2022-08-07T15:53:55;1.92;;;0.95;;
4575;SDS011;2300;51.874;8.430;2022-08-07T15:56:31;2.15;;;0.80;;
4575;SDS011;2300;51.874;8.430;2022-08-07T15:59:00;1.75;;;0.80;;